Time;durP1;ratioP1;P1;durP2;ratioP2;P2;SDS_P1;SDS_P2;PMS_P1;PMS_P2;Temp;Humidity;BMP_temperature;BMP_pressure;BME280_temperature;BME280_humidity;BME280_pressure;Samples;Min_cycle;Max_cycle;Signal;HPM_P1;HPM_P2
2022/10/06 00:01:16;;;;;;;14.10;13.30;;;;;;;10.42;100.00;101815.47;5024088;28;20392;-67
2022/10/06 00:03:43;;;;;;;14.35;13.52;;;;;;;10.41;100.00;101811.16;5023636;28;20060;-67
2022/10/06 00:06:12;;;;;;;14.02;13.23;;;;;;;10.27;100.00;101810.75;5023037;28;20029;-66
2022/10/06 00:08:40;;;;;;;13.98;13.18;;;;;;;10.19;100.00;101816.72;5019929;28;20459;-67
2022/10/06 00:11:07;;;;;;;14.30;13.50;;;;;;;10.19;100.00;101814.91;5015877;28;20029;-67
2022/10/06 00:13:32;;;;;;;13.65;12.90;;;;;;;10.28;100.00;101815.91;5020985;28;20080;-66
2022/10/06 00:15:58;;;;;;;14.13;13.32;;;;;;;10.48;100.00;101809.59;5024135;28;20033;-66
2022/10/06 00:18:25;;;;;;;13.93;13.13;;;;;;;10.49;100.00;101800.66;5028210;28;20052;-66
2022/10/06 00:20:56;;;;;;;14.43;13.52;;;;;;;10.54;100.00;101805.53;5021928;28;20122;-66
2022/10/06 00:23:22;;;;;;;13.25;12.55;;;;;;;10.65;100.00;101804.53;5022201;28;20025;-66
2022/10/06 00:25:47;;;;;;;13.60;12.82;;;;;;;10.69;100.00;101809.41;5027729;28;20040;-67
2022/10/06 00:28:13;;;;;;;13.80;13.00;;;;;;;10.68;100.00;101796.28;5019356;28;20033;-67
2022/10/06 00:30:39;;;;;;;14.02;13.23;;;;;;;10.65;100.00;101804.53;5025340;28;20053;-70
2022/10/06 00:33:05;;;;;;;13.75;12.95;;;;;;;10.34;100.00;101802.09;5022964;28;20033;-66
2022/10/06 00:35:33;;;;;;;14.60;13.70;;;;;;;10.66;100.00;101807.06;5027772;28;20477;-66
2022/10/06 00:38:00;;;;;;;13.70;12.90;;;;;;;10.78;100.00;101800.59;5025752;28;20389;-66
2022/10/06 00:40:26;;;;;;;13.70;12.90;;;;;;;10.82;100.00;101798.50;5027745;28;20156;-66
2022/10/06 00:42:59;;;;;;;13.38;12.68;;;;;;;10.86;100.00;101799.84;5028407;28;20026;-66
2022/10/06 00:45:44;;;;;;;13.15;12.45;;;;;;;10.81;100.00;101788.03;5021746;28;20049;-66
2022/10/06 00:48:23;;;;;;;13.85;13.05;;;;;;;10.76;100.00;101788.44;5022657;28;20069;-66
2022/10/06 00:50:52;;;;;;;13.30;12.60;;;;;;;10.81;100.00;101788.03;5022355;28;20072;-66
2022/10/06 00:53:20;;;;;;;14.07;13.23;;;;;;;10.76;100.00;101793.75;5024749;28;20022;-67
2022/10/06 00:55:45;;;;;;;13.10;12.40;;;;;;;10.71;100.00;101788.03;5025034;28;20048;-66
2022/10/06 00:58:11;;;;;;;14.70;13.80;;;;;;;10.64;100.00;101787.78;5029116;28;20086;-67
2022/10/06 01:00:38;;;;;;;14.02;13.23;;;;;;;10.47;100.00;101773.44;5020169;28;20116;-66
2022/10/06 01:03:10;;;;;;;13.68;12.88;;;;;;;10.51;100.00;101772.19;5019498;28;20025;-66
2022/10/06 01:05:45;;;;;;;15.15;14.15;;;;;;;10.39;100.00;101768.03;5027170;28;20071;-67
2022/10/06 01:08:11;;;;;;;14.00;13.20;;;;;;;10.41;100.00;101768.72;5027018;28;20021;-66
2022/10/06 01:10:37;;;;;;;13.38;12.68;;;;;;;10.43;100.00;101760.63;5026199;28;20384;-66
2022/10/06 01:13:02;;;;;;;13.95;13.15;;;;;;;10.44;100.00;101743.72;5017249;28;20029;-68
2022/10/06 01:15:28;;;;;;;13.55;12.80;;;;;;;10.10;100.00;101756.59;5019891;28;20026;-67
2022/10/06 01:18:01;;;;;;;13.73;12.93;;;;;;;10.03;100.00;101755.47;5022306;28;20022;-66
2022/10/06 01:20:28;;;;;;;13.30;12.60;;;;;;;10.29;100.00;101735.38;5022583;28;20059;-66
2022/10/06 01:22:59;;;;;;;13.35;12.65;;;;;;;10.01;100.00;101729.13;5020020;28;21302;-67
2022/10/06 01:25:25;;;;;;;13.98;13.18;;;;;;;9.94;100.00;101751.88;5026652;28;20041;-67
2022/10/06 01:27:53;;;;;;;13.52;12.80;;;;;;;9.95;100.00;101756.19;5017477;28;20022;-66
2022/10/06 01:30:26;;;;;;;13.52;12.82;;;;;;;10.03;100.00;101756.31;5023165;28;20025;-66
2022/10/06 01:32:52;;;;;;;13.50;12.80;;;;;;;10.11;100.00;101759.09;5026798;28;20469;-67
2022/10/06 01:35:18;;;;;;;13.82;13.02;;;;;;;10.15;100.00;101755.19;5019282;28;20033;-67
2022/10/06 01:37:44;;;;;;;13.40;12.68;;;;;;;10.22;100.00;101751.03;5020578;28;20024;-66
2022/10/06 01:40:09;;;;;;;14.00;13.20;;;;;;;10.16;100.00;101756.03;5021568;28;21452;-66
2022/10/06 01:42:36;;;;;;;13.98;13.18;;;;;;;10.01;100.00;101755.63;5024613;28;20029;-66
2022/10/06 01:45:02;;;;;;;13.90;13.10;;;;;;;10.04;100.00;101752.69;5024003;28;20129;-66
2022/10/06 01:47:27;;;;;;;14.30;13.48;;;;;;;10.15;100.00;101755.19;5023253;28;20041;-66
2022/10/06 01:49:53;;;;;;;13.98;13.18;;;;;;;10.17;100.00;101760.34;5022684;28;20036;-66
2022/10/06 01:52:19;;;;;;;13.93;13.13;;;;;;;10.50;100.00;101745.78;5024890;28;20101;-66
2022/10/06 01:54:44;;;;;;;14.57;13.68;;;;;;;10.62;100.00;101744.63;5027016;28;20037;-66
2022/10/06 01:57:10;;;;;;;13.77;12.98;;;;;;;10.55;100.00;101748.84;5028065;28;20025;-66
2022/10/06 01:59:35;;;;;;;13.32;12.63;;;;;;;10.56;100.00;101739.06;5026137;28;20499;-66
2022/10/06 02:02:01;;;;;;;13.77;13.00;;;;;;;10.46;100.00;101739.94;5020845;28;20582;-66
2022/10/06 02:04:27;;;;;;;13.82;13.02;;;;;;;10.31;100.00;101736.06;5025097;28;20040;-66
2022/10/06 02:06:54;;;;;;;13.68;12.93;;;;;;;10.47;100.00;101738.94;5018587;28;20400;-67
2022/10/06 02:09:22;;;;;;;14.13;13.32;;;;;;;10.54;100.00;101730.41;5023547;28;20025;-66
2022/10/06 02:11:48;;;;;;;13.35;12.65;;;;;;;10.55;100.00;101729.44;5025758;28;20061;-65
2022/10/06 02:14:14;;;;;;;13.73;12.93;;;;;;;10.51;100.00;101739.53;5018341;28;20108;-66
2022/10/06 02:16:40;;;;;;;14.05;13.25;;;;;;;10.15;100.00;101744.59;5031355;28;20516;-66
2022/10/06 02:19:05;;;;;;;14.10;13.30;;;;;;;10.30;100.00;101746.84;5027573;28;20349;-66
2022/10/06 02:21:31;;;;;;;14.77;13.88;;;;;;;10.35;100.00;101736.59;5020205;28;20167;-67
2022/10/06 02:23:57;;;;;;;13.68;12.95;;;;;;;10.26;100.00;101734.81;5020112;28;20087;-67
2022/10/06 02:26:23;;;;;;;13.50;12.80;;;;;;;10.09;100.00;101736.38;5017368;28;20489;-67
2022/10/06 02:28:51;;;;;;;13.77;12.98;;;;;;;10.06;100.00;101745.44;5017471;28;20080;-67
2022/10/06 02:31:17;;;;;;;13.63;12.90;;;;;;;10.19;100.00;101743.31;5023326;28;20029;-66
2022/10/06 02:33:43;;;;;;;14.23;13.43;;;;;;;10.06;100.00;101741.94;5024624;28;20036;-66
2022/10/06 02:36:11;;;;;;;14.40;13.55;;;;;;;10.14;100.00;101745.56;5022626;28;20079;-67
2022/10/06 02:38:38;;;;;;;13.80;13.00;;;;;;;10.19;100.00;101748.63;5024961;28;20036;-67
2022/10/06 02:41:04;;;;;;;13.40;12.70;;;;;;;10.08;100.00;101750.59;5026476;28;20100;-66
2022/10/06 02:43:30;;;;;;;13.88;13.07;;;;;;;10.32;100.00;101753.66;5023211;28;20025;-67
2022/10/06 02:46:02;;;;;;;13.52;12.77;;;;;;;10.15;100.00;101747.25;5016654;28;20057;-66
2022/10/06 02:48:28;;;;;;;13.82;13.02;;;;;;;10.26;100.00;101748.09;5025268;28;20036;-66
2022/10/06 02:51:00;;;;;;;13.68;12.88;;;;;;;10.18;100.00;101744.28;5022564;28;20369;-66
2022/10/06 02:53:26;;;;;;;13.85;13.05;;;;;;;10.09;100.00;101749.63;5023511;28;20091;-66
2022/10/06 02:56:04;;;;;;;14.18;13.38;;;;;;;10.11;100.00;101747.66;5025034;28;20078;-65
2022/10/06 02:58:30;;;;;;;13.70;12.90;;;;;;;9.86;100.00;101749.09;5022119;28;20025;-65
2022/10/06 03:01:07;;;;;;;13.45;12.75;;;;;;;9.84;100.00;101745.72;5017692;28;20096;-65
2022/10/06 03:03:34;;;;;;;14.10;13.30;;;;;;;9.82;100.00;101743.22;5018464;28;20025;-67
2022/10/06 03:06:04;;;;;;;13.55;12.85;;;;;;;9.66;100.00;101735.00;5021405;28;20025;-67
2022/10/06 03:08:30;;;;;;;13.90;13.10;;;;;;;9.88;100.00;101736.53;5013993;28;20052;-67
2022/10/06 03:11:02;;;;;;;13.60;12.80;;;;;;;9.91;100.00;101728.28;5026132;28;20063;-65
2022/10/06 03:13:29;;;;;;;14.52;13.63;;;;;;;9.61;100.00;101729.25;5020896;28;20443;-67
2022/10/06 03:15:55;;;;;;;13.35;12.65;;;;;;;9.49;100.00;101719.78;5018920;28;20029;-66
2022/10/06 03:18:21;;;;;;;14.18;13.38;;;;;;;9.59;100.00;101729.41;5022749;28;20723;-66
2022/10/06 03:20:46;;;;;;;15.00;14.10;;;;;;;9.40;100.00;101729.38;5025699;28;20037;-66
2022/10/06 03:23:12;;;;;;;14.60;13.80;;;;;;;9.58;100.00;101730.38;5023561;28;20030;-67
2022/10/06 03:25:37;;;;;;;14.80;13.93;;;;;;;9.54;100.00;101728.97;5021917;28;20385;-67
2022/10/06 03:28:03;;;;;;;14.50;13.70;;;;;;;9.23;100.00;101740.66;5019036;28;20507;-67
2022/10/06 03:30:28;;;;;;;14.60;13.80;;;;;;;9.50;100.00;101740.84;5019748;28;20288;-67
2022/10/06 03:32:54;;;;;;;14.65;13.85;;;;;;;9.55;100.00;101743.91;5024146;28;20029;-67
2022/10/06 03:35:19;;;;;;;15.10;14.20;;;;;;;9.59;100.00;101741.81;5017815;28;20557;-67
2022/10/06 03:37:45;;;;;;;15.02;14.13;;;;;;;9.50;100.00;101735.53;5025416;28;20034;-67
2022/10/06 03:40:10;;;;;;;14.23;13.43;;;;;;;9.42;100.00;101730.09;5016036;28;20041;-67
2022/10/06 03:42:36;;;;;;;14.07;13.27;;;;;;;9.80;100.00;101736.38;5019313;28;20109;-67
2022/10/06 03:45:01;;;;;;;14.68;13.77;;;;;;;9.65;100.00;101736.81;5017361;28;20815;-67
2022/10/06 03:47:29;;;;;;;13.85;13.05;;;;;;;9.61;100.00;101738.03;5023775;28;20033;-65
2022/10/06 03:49:55;;;;;;;13.70;13.00;;;;;;;9.39;100.00;101736.47;5021041;28;20034;-66
2022/10/06 03:52:20;;;;;;;13.63;12.93;;;;;;;9.34;100.00;101737.91;5004464;28;20120;-66
2022/10/06 03:54:46;;;;;;;14.30;13.50;;;;;;;9.30;100.00;101747.91;5019537;28;20499;-67
2022/10/06 03:57:11;;;;;;;14.50;13.70;;;;;;;9.31;100.00;101738.97;5027469;28;20021;-66
2022/10/06 03:59:37;;;;;;;13.88;13.07;;;;;;;9.25;100.00;101738.69;5029533;28;20380;-66
2022/10/06 04:02:04;;;;;;;14.00;13.20;;;;;;;9.41;100.00;101755.75;5026676;28;20032;-66
2022/10/06 04:04:30;;;;;;;13.93;13.13;;;;;;;9.51;100.00;101758.41;5025054;28;20480;-66
2022/10/06 04:06:55;;;;;;;14.45;13.57;;;;;;;9.55;100.00;101757.16;5030383;28;20064;-66
2022/10/06 04:09:21;;;;;;;14.05;13.25;;;;;;;9.47;100.00;101757.00;5020830;28;20025;-66
2022/10/06 04:11:47;;;;;;;14.07;13.27;;;;;;;9.79;100.00;101762.06;5026830;28;20025;-67
2022/10/06 04:14:15;;;;;;;14.05;13.25;;;;;;;9.55;100.00;101754.50;5019219;28;20029;-67
2022/10/06 04:16:46;;;;;;;14.90;14.00;;;;;;;9.93;100.00;101761.63;5028522;28;20036;-67
2022/10/06 04:19:13;;;;;;;14.00;13.20;;;;;;;9.63;100.00;101762.59;5026525;28;20103;-66
2022/10/06 04:21:42;;;;;;;13.60;12.80;;;;;;;9.95;100.00;101777.41;5024077;28;20026;-66
2022/10/06 04:24:11;;;;;;;14.07;13.25;;;;;;;10.01;100.00;101758.28;5029580;28;20024;-66
2022/10/06 04:26:40;;;;;;;13.80;13.00;;;;;;;9.81;100.00;101768.03;5023676;28;20030;-67
2022/10/06 04:29:05;;;;;;;13.30;12.60;;;;;;;9.88;100.00;101755.06;5026988;28;20755;-67
2022/10/06 04:31:35;;;;;;;14.23;13.35;;;;;;;9.81;100.00;101764.56;5025212;28;20029;-66
2022/10/06 04:34:02;;;;;;;13.68;12.88;;;;;;;10.00;100.00;101761.06;5024824;28;20530;-66
2022/10/06 04:36:30;;;;;;;14.52;13.63;;;;;;;9.86;100.00;101757.88;5026764;28;20413;-66
2022/10/06 04:39:01;;;;;;;13.73;12.93;;;;;;;10.01;100.00;101766.22;5020759;28;20396;-66
2022/10/06 04:41:36;;;;;;;13.05;12.35;;;;;;;10.28;100.00;101756.72;5023264;28;20423;-66
2022/10/06 04:44:03;;;;;;;14.43;13.52;;;;;;;10.31;100.00;101757.28;5028393;28;20029;-66
2022/10/06 04:46:30;;;;;;;14.00;13.20;;;;;;;9.96;100.00;101771.09;5029440;28;20492;-66
2022/10/06 04:48:55;;;;;;;13.60;12.80;;;;;;;9.74;100.00;101771.38;5022424;28;20168;-66
2022/10/06 04:51:23;;;;;;;14.27;13.40;;;;;;;9.89;100.00;101780.59;5028011;28;20040;-64
2022/10/06 04:53:49;;;;;;;13.95;13.15;;;;;;;10.05;100.00;101780.03;5025176;28;20053;-65
2022/10/06 04:56:23;;;;;;;13.35;12.65;;;;;;;9.82;100.00;101790.91;5025089;28;20053;-65
2022/10/06 04:58:50;;;;;;;14.37;13.47;;;;;;;9.73;100.00;101788.25;5022006;28;20029;-65
2022/10/06 05:01:20;;;;;;;14.02;13.23;;;;;;;9.66;100.00;101788.81;5021745;28;20157;-65
2022/10/06 05:03:47;;;;;;;15.30;14.30;;;;;;;10.02;100.00;101789.13;5023720;28;20126;-65
2022/10/06 05:06:16;;;;;;;15.18;14.18;;;;;;;10.01;100.00;101786.59;5024303;28;20063;-65
2022/10/06 05:08:43;;;;;;;14.60;13.70;;;;;;;10.09;100.00;101789.38;5031318;28;20033;-66
2022/10/06 05:11:10;;;;;;;14.73;13.82;;;;;;;10.54;100.00;101796.75;5017579;28;20029;-66
2022/10/06 05:13:37;;;;;;;13.23;12.52;;;;;;;11.40;100.00;101781.44;5020536;28;20101;-66
2022/10/06 05:16:05;;;;;;;13.45;12.65;;;;;;;12.02;100.00;101785.06;5021535;28;20120;-65
2022/10/06 05:18:32;;;;;;;13.18;12.45;;;;;;;12.38;100.00;101781.34;5016187;28;20028;-66
2022/10/06 05:20:59;;;;;;;13.38;12.65;;;;;;;12.62;100.00;101782.50;5025660;28;20022;-65
2022/10/06 05:23:26;;;;;;;13.10;12.40;;;;;;;13.19;100.00;101780.94;5028097;28;20034;-66
2022/10/06 05:25:53;;;;;;;13.20;12.48;;;;;;;13.21;100.00;101778.97;5025914;28;20734;-64
2022/10/06 05:28:20;;;;;;;12.70;12.00;;;;;;;13.61;100.00;101773.94;5022156;28;20546;-65
2022/10/06 05:31:06;;;;;;;13.02;12.32;;;;;;;14.58;100.00;101789.97;5023361;28;20484;-65
2022/10/06 05:33:34;;;;;;;12.52;11.93;;;;;;;15.20;100.00;101784.75;5022909;28;20091;-65
2022/10/06 05:36:05;;;;;;;12.68;12.02;;;;;;;15.72;100.00;101792.19;5023943;28;20033;-66
2022/10/06 05:38:32;;;;;;;12.50;11.82;;;;;;;15.31;100.00;101782.69;5021483;28;20026;-64
2022/10/06 05:41:06;;;;;;;13.73;12.93;;;;;;;14.93;100.00;101794.06;5024471;28;20029;-65
2022/10/06 05:43:32;;;;;;;13.80;13.00;;;;;;;16.12;100.00;101795.56;5022668;28;20111;-64
2022/10/06 05:46:00;;;;;;;13.10;12.40;;;;;;;16.25;100.00;101790.44;5025116;28;20472;-66
2022/10/06 05:48:27;;;;;;;13.38;12.68;;;;;;;15.98;100.00;101797.16;5020235;28;20100;-66
2022/10/06 05:51:08;;;;;;;13.27;12.57;;;;;;;17.27;100.00;101800.56;5021998;28;20029;-66
2022/10/06 05:53:35;;;;;;;12.77;12.13;;;;;;;17.83;100.00;101801.63;5025145;28;20021;-65
2022/10/06 05:56:09;;;;;;;12.50;11.90;;;;;;;17.49;100.00;101807.66;5019776;28;20030;-65
2022/10/06 05:58:37;;;;;;;13.00;12.30;;;;;;;16.57;100.00;101809.88;5021163;28;20497;-65
2022/10/06 06:01:14;;;;;;;12.30;11.70;;;;;;;15.44;100.00;101810.53;5023830;28;20025;-65
2022/10/06 06:03:41;;;;;;;12.90;12.20;;;;;;;17.41;100.00;101813.13;5027310;28;20040;-65
2022/10/06 06:06:16;;;;;;;12.68;12.07;;;;;;;17.44;100.00;101809.22;5024637;28;20071;-66
2022/10/06 06:08:41;;;;;;;12.48;11.88;;;;;;;17.40;100.00;101804.22;5020872;28;20133;-65
2022/10/06 06:11:07;;;;;;;13.00;12.30;;;;;;;17.13;100.00;101807.63;5023713;28;20067;-65
2022/10/06 06:13:34;;;;;;;12.45;11.85;;;;;;;16.33;100.00;101808.28;5021773;28;20034;-65
2022/10/06 06:16:01;;;;;;;11.98;11.45;;;;;;;16.40;100.00;101809.22;5024083;28;20124;-66
2022/10/06 06:18:27;;;;;;;12.50;11.90;;;;;;;15.90;100.00;101804.44;5023372;28;20392;-65
2022/10/06 06:21:04;;;;;;;13.00;12.30;;;;;;;16.06;100.00;101812.34;5026049;28;20026;-66
2022/10/06 06:23:39;;;;;;;12.57;11.98;;;;;;;15.54;100.00;101820.19;5018729;28;20029;-66
2022/10/06 06:26:10;;;;;;;13.20;12.50;;;;;;;15.67;100.00;101823.16;5020788;28;20032;-66
2022/10/06 06:28:36;;;;;;;12.70;12.10;;;;;;;14.59;100.00;101829.00;5021431;28;20034;-66
2022/10/06 06:31:05;;;;;;;14.00;13.20;;;;;;;14.28;100.00;101833.34;5020604;28;20030;-65
2022/10/06 06:33:36;;;;;;;13.13;12.43;;;;;;;15.13;100.00;101837.25;5017990;28;20112;-65
2022/10/06 06:36:10;;;;;;;13.13;12.43;;;;;;;14.81;100.00;101831.97;5025169;28;20581;-65
2022/10/06 06:38:36;;;;;;;13.23;12.52;;;;;;;16.30;100.00;101825.53;5017528;28;20389;-66
2022/10/06 06:41:01;;;;;;;12.73;12.10;;;;;;;17.58;100.00;101832.50;5022414;28;20040;-66
2022/10/06 06:43:27;;;;;;;12.05;11.45;;;;;;;19.73;100.00;101825.63;5022377;28;20029;-70
2022/10/06 06:45:52;;;;;;;13.18;12.48;;;;;;;20.87;100.00;101828.16;5024298;28;20150;-67
2022/10/06 06:48:19;;;;;;;12.38;11.77;;;;;;;21.33;99.97;101824.50;5021635;28;20037;-67
2022/10/06 06:50:56;;;;;;;12.02;11.43;;;;;;;20.70;100.00;101838.56;5024008;28;20055;-68
2022/10/06 06:53:21;;;;;;;12.35;11.75;;;;;;;19.63;100.00;101828.72;5023770;28;20392;-66
2022/10/06 06:55:51;;;;;;;12.20;11.60;;;;;;;19.75;100.00;101834.31;5021808;28;20022;-67
2022/10/06 06:58:18;;;;;;;12.70;12.10;;;;;;;19.69;100.00;101837.84;5015870;28;20083;-65
2022/10/06 07:00:45;;;;;;;12.40;11.80;;;;;;;19.41;100.00;101832.53;5023785;28;20116;-66
2022/10/06 07:03:16;;;;;;;13.15;12.48;;;;;;;20.39;100.00;101840.00;5023443;28;20033;-66
2022/10/06 07:05:44;;;;;;;13.77;13.07;;;;;;;21.99;94.81;101834.94;5025049;28;20027;-65
2022/10/06 07:08:10;;;;;;;12.90;12.30;;;;;;;24.76;76.98;101830.69;5024449;28;20091;-66
2022/10/06 07:10:36;;;;;;;12.30;11.70;;;;;;;23.85;82.00;101826.56;5018115;28;20036;-66
2022/10/06 07:13:05;;;;;;;12.18;11.57;;;;;;;22.71;87.51;101833.53;5017584;28;20536;-66
2022/10/06 07:26:32;;;;;;;11.90;11.40;;;;;;;27.59;55.63;101845.00;4993093;28;20484;-66
2022/10/06 07:28:59;;;;;;;12.48;11.88;;;;;;;28.87;49.30;101841.44;5020616;28;20056;-66
2022/10/06 07:31:32;;;;;;;12.48;11.88;;;;;;;28.17;50.17;101840.66;5021628;28;20030;-66
2022/10/06 07:34:02;;;;;;;12.15;11.65;;;;;;;27.80;51.25;101841.44;5024849;28;20078;-66
2022/10/06 07:36:31;;;;;;;12.48;11.88;;;;;;;30.08;44.33;101836.63;5022218;28;20037;-67
2022/10/06 07:38:57;;;;;;;12.52;11.93;;;;;;;29.95;42.97;101844.25;5030891;28;20076;-66
2022/10/06 07:41:23;;;;;;;12.77;12.18;;;;;;;30.26;41.94;101839.66;5028170;28;20491;-67
2022/10/06 07:43:49;;;;;;;12.43;11.82;;;;;;;31.14;39.72;101835.59;5023988;28;20042;-66
2022/10/06 07:46:17;;;;;;;12.50;11.90;;;;;;;31.22;39.33;101836.97;5026020;28;20604;-66
2022/10/06 07:48:45;;;;;;;12.07;11.57;;;;;;;30.98;39.95;101832.09;5023604;28;20037;-66
2022/10/06 07:51:16;;;;;;;12.70;12.10;;;;;;;31.46;39.01;101835.22;5029874;28;20032;-68
2022/10/06 07:53:49;;;;;;;12.73;12.13;;;;;;;32.14;37.01;101829.78;5031863;28;20061;-67
2022/10/06 07:56:15;;;;;;;12.40;11.80;;;;;;;31.24;37.39;101835.59;5025230;28;20033;-65
2022/10/06 07:58:43;;;;;;;12.43;11.82;;;;;;;32.08;36.51;101835.59;5026722;28;20030;-65
2022/10/06 08:01:12;;;;;;;12.43;11.82;;;;;;;30.65;36.66;101824.53;5024702;28;20036;-66
2022/10/06 08:03:39;;;;;;;12.48;11.88;;;;;;;30.38;38.62;101814.72;5029006;28;20042;-66
2022/10/06 08:06:11;;;;;;;12.23;11.65;;;;;;;30.01;36.89;101823.19;5026004;28;21139;-67
2022/10/06 08:08:37;;;;;;;12.50;11.90;;;;;;;31.19;36.58;101819.13;5024612;28;20419;-66
2022/10/06 08:11:05;;;;;;;12.65;12.05;;;;;;;31.62;35.82;101812.06;5024853;28;20033;-66
2022/10/06 08:13:31;;;;;;;12.60;12.00;;;;;;;31.30;34.12;101818.03;5021202;28;20029;-66
2022/10/06 08:16:04;;;;;;;12.23;11.68;;;;;;;31.29;34.49;101821.88;5022759;28;20101;-66
2022/10/06 08:18:29;;;;;;;14.18;13.48;;;;;;;31.31;32.58;101811.44;5023883;28;20096;-65
2022/10/06 08:20:55;;;;;;;12.70;12.10;;;;;;;30.47;32.59;101810.31;5021887;28;20134;-68
2022/10/06 08:23:21;;;;;;;12.63;12.02;;;;;;;28.57;34.02;101809.31;5024068;28;20041;-67
2022/10/06 08:25:52;;;;;;;12.88;12.27;;;;;;;31.48;32.03;101813.78;5025747;28;20045;-66
2022/10/06 08:28:19;;;;;;;12.75;12.15;;;;;;;30.97;31.61;101811.28;5027932;28;20044;-67
2022/10/06 08:30:45;;;;;;;12.40;11.80;;;;;;;29.12;34.71;101813.44;5026393;28;20018;-65
2022/10/06 08:33:11;;;;;;;12.30;11.70;;;;;;;31.34;31.93;101818.25;5026151;28;20396;-66
2022/10/06 08:35:38;;;;;;;13.07;12.48;;;;;;;31.68;31.29;101815.59;5022411;28;20029;-67
2022/10/06 08:38:04;;;;;;;12.48;11.88;;;;;;;30.75;32.17;101814.38;5022469;28;20580;-65
2022/10/06 08:40:31;;;;;;;13.13;12.52;;;;;;;31.30;30.89;101811.72;5026568;28;20108;-66
2022/10/06 08:42:59;;;;;;;13.10;12.50;;;;;;;30.63;31.15;101811.13;5024273;28;20026;-66
2022/10/06 08:45:28;;;;;;;13.35;12.73;;;;;;;30.22;32.32;101804.88;5020733;28;20146;-66
2022/10/06 08:48:01;;;;;;;12.75;12.15;;;;;;;30.54;33.08;101808.09;5020283;28;20059;-67
2022/10/06 08:50:31;;;;;;;13.07;12.48;;;;;;;29.62;31.85;101801.84;5023365;28;20022;-65
2022/10/06 08:53:15;;;;;;;13.10;12.50;;;;;;;29.89;32.78;101795.28;5021133;28;20048;-66
2022/10/06 08:55:58;;;;;;;13.30;12.68;;;;;;;31.20;30.41;101800.75;5017445;28;20148;-66
2022/10/06 08:58:52;;;;;;;12.70;12.10;;;;;;;30.53;30.72;101795.50;5023726;28;20536;-66
2022/10/06 09:01:22;;;;;;;;;;;;;;;30.79;30.72;101795.47;5022657;28;20053;-65
2022/10/06 09:03:51;;;;;;;12.40;11.80;;;;;;;30.64;30.89;101795.50;5022177;28;19921;-67
2022/10/06 09:06:30;;;;;;;12.57;11.98;;;;;;;29.14;32.72;101795.66;5019705;28;20436;-65
2022/10/06 09:09:10;;;;;;;12.23;11.63;;;;;;;29.18;32.14;101796.78;5026094;28;20539;-67
2022/10/06 09:11:52;;;;;;;12.80;12.20;;;;;;;28.77;31.68;101795.75;5019735;28;20121;-66
2022/10/06 09:14:32;;;;;;;12.60;12.00;;;;;;;30.25;30.11;101794.19;5027883;28;20037;-66
2022/10/06 09:17:03;;;;;;;12.00;11.50;;;;;;;29.49;31.48;101796.88;5022586;28;20108;-66
2022/10/06 09:19:52;;;;;;;12.80;12.20;;;;;;;29.09;32.30;101798.41;5016651;28;20119;-65
2022/10/06 09:22:20;;;;;;;12.55;11.95;;;;;;;29.76;32.11;101801.31;5023295;28;20364;-67
2022/10/06 09:24:49;;;;;;;12.85;12.25;;;;;;;26.91;35.46;101797.31;5024712;28;20060;-67
2022/10/06 09:27:23;;;;;;;12.32;11.73;;;;;;;26.87;35.49;101805.16;5016250;28;20030;-66
2022/10/06 09:29:50;;;;;;;12.40;11.80;;;;;;;26.21;36.76;101792.44;5023375;28;20034;-66
2022/10/06 09:32:18;;;;;;;13.27;12.57;;;;;;;25.68;38.95;101799.16;5024806;28;20037;-66
2022/10/06 09:34:55;;;;;;;13.45;12.75;;;;;;;25.19;39.63;101788.75;5020622;28;20509;-67
2022/10/06 09:37:22;;;;;;;13.82;13.13;;;;;;;24.98;40.47;101795.63;5022494;28;20124;-66
2022/10/06 09:39:51;;;;;;;13.75;13.05;;;;;;;24.55;42.24;101795.19;5019104;28;20033;-67
2022/10/06 09:42:24;;;;;;;13.85;13.15;;;;;;;24.20;44.21;101791.38;5028585;28;20021;-67
2022/10/06 09:44:50;;;;;;;14.18;13.38;;;;;;;24.31;43.89;101797.88;5019854;28;20057;-67
2022/10/06 09:47:27;;;;;;;13.65;12.95;;;;;;;23.88;43.66;101796.28;5026911;28;20042;-66
2022/10/06 09:50:15;;;;;;;13.43;12.73;;;;;;;23.66;44.38;101787.88;5021498;28;20037;-66
2022/10/06 09:52:42;;;;;;;13.77;13.07;;;;;;;23.05;50.02;101796.13;5019832;28;20046;-66
2022/10/06 09:55:13;;;;;;;13.48;12.77;;;;;;;22.53;54.19;101779.41;5021402;28;20507;-66
2022/10/06 09:57:48;;;;;;;14.35;13.55;;;;;;;22.03;62.61;101785.66;5028313;28;20025;-66
2022/10/06 10:00:30;;;;;;;13.70;13.00;;;;;;;22.43;55.17;101779.94;5022643;28;20021;-66
2022/10/06 10:03:12;;;;;;;13.55;12.85;;;;;;;22.08;64.04;101776.91;5021494;28;20041;-65
2022/10/06 10:05:46;;;;;;;13.45;12.75;;;;;;;22.15;59.08;101780.38;5023769;28;20519;-66
2022/10/06 10:08:29;;;;;;;13.65;12.95;;;;;;;22.37;56.57;101774.56;5027339;28;20063;-67
2022/10/06 10:11:06;;;;;;;14.02;13.23;;;;;;;22.46;56.48;101773.25;5023567;28;20056;-66
2022/10/06 10:13:42;;;;;;;13.63;12.93;;;;;;;21.92;64.22;101766.63;5024280;28;20535;-65
2022/10/06 10:16:15;;;;;;;13.65;12.95;;;;;;;21.74;67.47;101764.66;5021743;28;20029;-66
2022/10/06 10:18:45;;;;;;;13.43;12.73;;;;;;;22.06;63.79;101752.78;5028917;28;20021;-66
2022/10/06 10:21:23;;;;;;;14.48;13.68;;;;;;;22.34;60.77;101765.88;5022645;28;20572;-65
2022/10/06 10:23:57;;;;;;;14.10;13.30;;;;;;;21.78;63.94;101757.78;5021811;28;20033;-66
2022/10/06 10:26:44;;;;;;;14.48;13.68;;;;;;;22.10;62.37;101755.06;5019592;28;20116;-67
2022/10/06 10:29:29;;;;;;;13.80;13.10;;;;;;;22.02;55.01;101756.13;5023537;28;20083;-67
2022/10/06 10:32:14;;;;;;;13.50;12.80;;;;;;;21.64;59.24;101754.34;5013601;28;20481;-68
2022/10/06 10:35:12;;;;;;;13.40;12.70;;;;;;;21.70;57.71;101755.34;5021858;28;20705;-66
2022/10/06 10:38:17;;;;;;;13.75;13.02;;;;;;;21.62;58.99;101748.34;5017034;28;20057;-66
2022/10/06 10:40:53;;;;;;;12.93;12.30;;;;;;;21.88;56.76;101752.69;5024747;28;20037;-66
2022/10/06 10:43:39;;;;;;;13.95;13.15;;;;;;;21.80;60.35;101747.56;5022154;28;20503;-65
2022/10/06 10:46:09;;;;;;;13.70;12.90;;;;;;;21.90;60.90;101747.09;5025388;28;20123;-66
2022/10/06 10:48:43;;;;;;;13.55;12.85;;;;;;;22.01;58.57;101754.47;5019064;28;20033;-66
2022/10/06 10:51:11;;;;;;;;;;;;;;;21.62;62.03;101742.94;5024700;28;20076;-65
2022/10/06 10:53:43;;;;;;;13.50;12.80;;;;;;;21.44;65.89;101737.44;5018416;28;19999;-66
2022/10/06 10:56:12;;;;;;;14.07;13.27;;;;;;;21.59;62.81;101735.25;5021435;28;20022;-66
2022/10/06 10:58:46;;;;;;;12.85;12.25;;;;;;;21.44;62.89;101732.03;5025213;28;20021;-66
2022/10/06 11:01:11;;;;;;;;;;;;;;;21.75;62.57;101740.16;5026709;28;20435;-66
2022/10/06 11:03:37;;;;;;;13.43;12.73;;;;;;;22.08;60.29;101744.47;5015867;28;19913;-66
2022/10/06 11:06:24;;;;;;;12.85;12.15;;;;;;;21.54;58.77;101724.31;5024970;28;20021;-66
2022/10/06 11:08:58;;;;;;;14.38;13.57;;;;;;;21.60;60.68;101738.81;5019808;28;20095;-66
2022/10/06 11:11:59;;;;;;;13.50;12.80;;;;;;;21.90;64.51;101744.41;5017934;28;20034;-66
2022/10/06 11:14:40;;;;;;;13.88;13.18;;;;;;;22.12;61.23;101729.50;5012669;28;20473;-66
2022/10/06 11:17:43;;;;;;;13.70;13.00;;;;;;;21.93;64.44;101738.56;5027965;28;20030;-67
2022/10/06 11:20:21;;;;;;;13.27;12.57;;;;;;;21.77;68.32;101729.94;5021812;28;20025;-66
2022/10/06 11:23:05;;;;;;;13.80;13.05;;;;;;;21.64;68.79;101731.91;5019494;28;20034;-67
2022/10/06 11:25:45;;;;;;;14.38;13.57;;;;;;;22.06;59.65;101735.75;5021989;28;20030;-66
2022/10/06 11:28:27;;;;;;;13.20;12.50;;;;;;;21.88;57.06;101732.97;5023821;28;20033;-65
2022/10/06 11:31:18;;;;;;;13.50;12.80;;;;;;;22.19;54.28;101726.72;5043167;28;20033;-66